Estación Meteorológica Peña el Pijo (Robertgarden) [ 02/03/23 04:27:50 CET ]

Fecha Hora Presion(HPa) Temp (°C) Humedad % Rocio (°C) Viento ( m/s) Direccion Lluvia 1Hora(mm) Lluvia 24H(mm) LLuvia Total(mm)
2010-Dec-03 01:01:19 1003.200 -0.4 67 -5.8         9.32
2010-Dec-03 02:03:20 1003.000 -0.2 67 -5.6         9.32
2010-Dec-03 03:01:16 1002.500 -0.4 67 -5.8         9.32
2010-Dec-03 04:01:16 1002.200 -0.1 68 -5.3         9.32
2010-Dec-03 05:01:14 1001.200 0.1 67 -5.3 1.7 SSE     9.32
2010-Dec-03 06:01:14 1000.600 0.3 67 -5.1 0.8 ESE     9.32
2010-Dec-03 07:01:15 1001.400 0.1 76 -3.6         9.32
2010-Dec-03 08:01:15 1001.800 -0.7 84 -3.1         9.32
2010-Dec-03 09:01:12 1004.000 -0.6 87 -2.5         9.32
2010-Dec-03 10:01:16 1005.200 0.6 81 -2.3         9.32
2010-Dec-03 11:01:13 1006.300 2.1 70 -2.8         9.32
2010-Dec-03 12:01:13 1006.400 2.6 68 -2.7 1.4 NE     9.32
2010-Dec-03 13:01:18 1006.500 1.6 67 -3.9         9.32
2010-Dec-03 14:01:14 1006.900 4.1 57 -3.7 1.2 S     9.32
2010-Dec-03 15:01:12 1007.100 5.4 53 -3.5         9.32
2010-Dec-03 16:01:18 1007.500 4.3 52 -4.8         9.32
2010-Dec-03 17:01:16 1007.900 0.9 62 -5.6         9.32
2010-Dec-03 18:01:14 1009.200 -1.1 65 -6.9         9.32
2010-Dec-03 19:01:15 1009.500 -2.7 73 -6.9         9.32
2010-Dec-03 20:01:12 1010.100 -3.4 75 -7.2         9.32
2010-Dec-03 21:01:13 1010.500 -4.5 75 -8.3         9.32
2010-Dec-03 22:01:14 1010.700 -5.1 75 -8.8         9.32
2010-Dec-03 23:01:12 1010.800 -5.6 74 -9.5         9.32

Temperatura Máxima:    Temperatura Mínima:-5°
Presión Máxima:1010.800 Hpa    Presión Mínima:1000.600 Hpa


Volver